sensor_id;sensor_type;location;lat;lon;timestamp;pressure;altitude;pressure_sealevel;temperature
11926;BMP180;6022;48.768;18.608;2023-02-01T00:01:07;98219.22;;;2.17
11926;BMP180;6022;48.768;18.608;2023-02-01T00:03:34;98217.34;;;2.23
11926;BMP180;6022;48.768;18.608;2023-02-01T00:06:02;98232.34;;;2.23
11926;BMP180;6022;48.768;18.608;2023-02-01T00:08:29;98228.19;;;2.22
11926;BMP180;6022;48.768;18.608;2023-02-01T00:11:07;98225.81;;;2.19
11926;BMP180;6022;48.768;18.608;2023-02-01T00:13:37;98227.41;;;2.22
11926;BMP180;6022;48.768;18.608;2023-02-01T00:16:15;98220.91;;;2.16
11926;BMP180;6022;48.768;18.608;2023-02-01T00:18:49;98229.97;;;2.19
11926;BMP180;6022;48.768;18.608;2023-02-01T00:21:20;98226.69;;;2.18
11926;BMP180;6022;48.768;18.608;2023-02-01T00:23:48;98212.47;;;2.19
11926;BMP180;6022;48.768;18.608;2023-02-01T00:26:34;98199.19;;;2.17
11926;BMP180;6022;48.768;18.608;2023-02-01T00:29:06;98200.72;;;2.21
11926;BMP180;6022;48.768;18.608;2023-02-01T00:31:33;98199.06;;;2.21
11926;BMP180;6022;48.768;18.608;2023-02-01T00:34:01;98202.41;;;2.20
11926;BMP180;6022;48.768;18.608;2023-02-01T00:36:28;98195.03;;;2.17
11926;BMP180;6022;48.768;18.608;2023-02-01T00:38:56;98202.97;;;2.28
11926;BMP180;6022;48.768;18.608;2023-02-01T00:41:23;98211.25;;;2.30
11926;BMP180;6022;48.768;18.608;2023-02-01T00:43:51;98204.44;;;2.33
11926;BMP180;6022;48.768;18.608;2023-02-01T00:46:19;98188.44;;;2.37
11926;BMP180;6022;48.768;18.608;2023-02-01T00:48:47;98201.69;;;2.41
11926;BMP180;6022;48.768;18.608;2023-02-01T00:51:19;98196.63;;;2.42
11926;BMP180;6022;48.768;18.608;2023-02-01T00:53:47;98191.63;;;2.42
11926;BMP180;6022;48.768;18.608;2023-02-01T00:56:14;98197.44;;;2.43
11926;BMP180;6022;48.768;18.608;2023-02-01T00:58:41;98193.16;;;2.46
11926;BMP180;6022;48.768;18.608;2023-02-01T01:01:17;98190.63;;;2.46
11926;BMP180;6022;48.768;18.608;2023-02-01T01:03:50;98170.66;;;2.45
11926;BMP180;6022;48.768;18.608;2023-02-01T01:06:23;98186.53;;;2.45
11926;BMP180;6022;48.768;18.608;2023-02-01T01:08:53;98188.91;;;2.48
11926;BMP180;6022;48.768;18.608;2023-02-01T01:11:27;98189.66;;;2.50
11926;BMP180;6022;48.768;18.608;2023-02-01T01:13:57;98163.00;;;2.49
11926;BMP180;6022;48.768;18.608;2023-02-01T01:16:27;98164.75;;;2.47
11926;BMP180;6022;48.768;18.608;2023-02-01T01:18:56;98172.13;;;2.50
11926;BMP180;6022;48.768;18.608;2023-02-01T01:21:25;98174.66;;;2.50
11926;BMP180;6022;48.768;18.608;2023-02-01T01:23:53;98187.03;;;2.55
11926;BMP180;6022;48.768;18.608;2023-02-01T01:26:24;98184.50;;;2.55
11926;BMP180;6022;48.768;18.608;2023-02-01T01:28:55;98191.94;;;2.56
11926;BMP180;6022;48.768;18.608;2023-02-01T01:31:23;98186.88;;;2.58
11926;BMP180;6022;48.768;18.608;2023-02-01T01:33:54;98181.88;;;2.58
11926;BMP180;6022;48.768;18.608;2023-02-01T01:36:22;98166.09;;;2.56
11926;BMP180;6022;48.768;18.608;2023-02-01T01:38:50;98168.56;;;2.57
11926;BMP180;6022;48.768;18.608;2023-02-01T01:41:31;98171.00;;;2.59
11926;BMP180;6022;48.768;18.608;2023-02-01T01:44:01;98172.69;;;2.58
11926;BMP180;6022;48.768;18.608;2023-02-01T01:46:36;98164.41;;;2.56
11926;BMP180;6022;48.768;18.608;2023-02-01T01:49:20;98165.16;;;2.58
11926;BMP180;6022;48.768;18.608;2023-02-01T01:51:57;98164.31;;;2.59
11926;BMP180;6022;48.768;18.608;2023-02-01T01:54:40;98160.88;;;2.62
11926;BMP180;6022;48.768;18.608;2023-02-01T01:57:24;98155.06;;;2.61
11926;BMP180;6022;48.768;18.608;2023-02-01T02:00:20;98151.75;;;2.61
11926;BMP180;6022;48.768;18.608;2023-02-01T02:03:08;98149.28;;;2.59
11926;BMP180;6022;48.768;18.608;2023-02-01T02:05:38;98150.97;;;2.59
11926;BMP180;6022;48.768;18.608;2023-02-01T02:08:05;98145.91;;;2.60
11926;BMP180;6022;48.768;18.608;2023-02-01T02:10:33;98145.03;;;2.61
11926;BMP180;6022;48.768;18.608;2023-02-01T02:13:19;98140.88;;;2.60
11926;BMP180;6022;48.768;18.608;2023-02-01T02:34:27;98132.25;;;2.90
11926;BMP180;6022;48.768;18.608;2023-02-01T02:37:07;98125.34;;;2.96
11926;BMP180;6022;48.768;18.608;2023-02-01T02:46:46;98118.34;;;3.04
11926;BMP180;6022;48.768;18.608;2023-02-01T02:49:50;98119.28;;;3.01
11926;BMP180;6022;48.768;18.608;2023-02-01T02:52:48;98126.78;;;3.01
11926;BMP180;6022;48.768;18.608;2023-02-01T02:55:38;98116.81;;;3.00
11926;BMP180;6022;48.768;18.608;2023-02-01T02:58:08;98112.72;;;2.98
11926;BMP180;6022;48.768;18.608;2023-02-01T03:00:57;98138.47;;;3.01
11926;BMP180;6022;48.768;18.608;2023-02-01T03:03:44;98135.28;;;2.98
11926;BMP180;6022;48.768;18.608;2023-02-01T03:06:37;98151.19;;;2.97
11926;BMP180;6022;48.768;18.608;2023-02-01T03:09:16;98141.34;;;2.92
11926;BMP180;6022;48.768;18.608;2023-02-01T03:11:48;98148.88;;;2.92
11926;BMP180;6022;48.768;18.608;2023-02-01T03:14:41;98149.78;;;2.90
11926;BMP180;6022;48.768;18.608;2023-02-01T03:17:16;98138.84;;;2.92
11926;BMP180;6022;48.768;18.608;2023-02-01T03:19:50;98144.44;;;2.99
11926;BMP180;6022;48.768;18.608;2023-02-01T03:22:24;98146.00;;;3.01
11926;BMP180;6022;48.768;18.608;2023-02-01T03:24:57;98144.94;;;3.06
11926;BMP180;6022;48.768;18.608;2023-02-01T03:27:41;98154.81;;;3.11
11926;BMP180;6022;48.768;18.608;2023-02-01T03:30:27;98146.47;;;3.10
11926;BMP180;6022;48.768;18.608;2023-02-01T03:33:00;98126.50;;;3.09
11926;BMP180;6022;48.768;18.608;2023-02-01T03:39:02;98155.88;;;3.05
11926;BMP180;6022;48.768;18.608;2023-02-01T03:41:56;98154.16;;;3.06
11926;BMP180;6022;48.768;18.608;2023-02-01T03:44:50;98152.66;;;3.02
11926;BMP180;6022;48.768;18.608;2023-02-01T03:47:24;98139.31;;;3.01
11926;BMP180;6022;48.768;18.608;2023-02-01T03:50:03;98159.38;;;3.01
11926;BMP180;6022;48.768;18.608;2023-02-01T03:52:44;98159.56;;;2.96
11926;BMP180;6022;48.768;18.608;2023-02-01T03:55:15;98167.97;;;2.95
11926;BMP180;6022;48.768;18.608;2023-02-01T04:00:34;98157.81;;;2.98
11926;BMP180;6022;48.768;18.608;2023-02-01T04:03:03;98158.53;;;3.01
11926;BMP180;6022;48.768;18.608;2023-02-01T04:05:31;98156.97;;;2.99
11926;BMP180;6022;48.768;18.608;2023-02-01T04:07:58;98150.97;;;3.02
11926;BMP180;6022;48.768;18.608;2023-02-01T04:10:26;98167.84;;;2.98
11926;BMP180;6022;48.768;18.608;2023-02-01T04:12:53;98165.41;;;2.96
11926;BMP180;6022;48.768;18.608;2023-02-01T04:15:20;98162.06;;;2.96
11926;BMP180;6022;48.768;18.608;2023-02-01T04:17:48;98163.81;;;2.94
11926;BMP180;6022;48.768;18.608;2023-02-01T04:20:15;98166.41;;;2.92
11926;BMP180;6022;48.768;18.608;2023-02-01T04:22:43;98163.94;;;2.91
11926;BMP180;6022;48.768;18.608;2023-02-01T04:25:11;98168.81;;;2.94
11926;BMP180;6022;48.768;18.608;2023-02-01T04:27:40;98181.34;;;2.94
11926;BMP180;6022;48.768;18.608;2023-02-01T04:30:10;98173.09;;;2.92
11926;BMP180;6022;48.768;18.608;2023-02-01T04:32:38;98174.72;;;2.93
11926;BMP180;6022;48.768;18.608;2023-02-01T04:35:07;98171.22;;;2.97
11926;BMP180;6022;48.768;18.608;2023-02-01T04:37:35;98167.06;;;2.96
11926;BMP180;6022;48.768;18.608;2023-02-01T04:40:02;98164.56;;;2.96
11926;BMP180;6022;48.768;18.608;2023-02-01T04:42:30;98167.84;;;2.98
11926;BMP180;6022;48.768;18.608;2023-02-01T04:44:57;98172.75;;;3.00
11926;BMP180;6022;48.768;18.608;2023-02-01T04:47:25;98170.13;;;3.03
11926;BMP180;6022;48.768;18.608;2023-02-01T04:49:53;98157.63;;;3.03
11926;BMP180;6022;48.768;18.608;2023-02-01T04:52:20;98170.13;;;3.03
11926;BMP180;6022;48.768;18.608;2023-02-01T04:54:47;98171.88;;;3.01
11926;BMP180;6022;48.768;18.608;2023-02-01T04:57:14;98165.34;;;2.98
11926;BMP180;6022;48.768;18.608;2023-02-01T04:59:41;98173.75;;;2.97
11926;BMP180;6022;48.768;18.608;2023-02-01T05:02:09;98178.84;;;2.94
11926;BMP180;6022;48.768;18.608;2023-02-01T05:04:36;98180.53;;;2.93
11926;BMP180;6022;48.768;18.608;2023-02-01T05:07:03;98183.22;;;2.89
11926;BMP180;6022;48.768;18.608;2023-02-01T05:09:30;98177.69;;;2.81
11926;BMP180;6022;48.768;18.608;2023-02-01T05:11:57;98181.88;;;2.80
11926;BMP180;6022;48.768;18.608;2023-02-01T05:14:43;98181.38;;;2.71
11926;BMP180;6022;48.768;18.608;2023-02-01T05:17:10;98190.63;;;2.69
11926;BMP180;6022;48.768;18.608;2023-02-01T05:19:37;98195.78;;;2.66
11926;BMP180;6022;48.768;18.608;2023-02-01T05:22:04;98181.59;;;2.65
11926;BMP180;6022;48.768;18.608;2023-02-01T05:24:31;98193.47;;;2.60
11926;BMP180;6022;48.768;18.608;2023-02-01T05:26:58;98206.88;;;2.59
11926;BMP180;6022;48.768;18.608;2023-02-01T05:29:26;98207.72;;;2.58
11926;BMP180;6022;48.768;18.608;2023-02-01T05:31:53;98196.09;;;2.57
11926;BMP180;6022;48.768;18.608;2023-02-01T05:34:20;98205.97;;;2.60
11926;BMP180;6022;48.768;18.608;2023-02-01T05:36:47;98205.06;;;2.63
11926;BMP180;6022;48.768;18.608;2023-02-01T05:39:15;98202.56;;;2.63
11926;BMP180;6022;48.768;18.608;2023-02-01T05:41:42;98198.38;;;2.63
11926;BMP180;6022;48.768;18.608;2023-02-01T05:44:11;98192.59;;;2.61
11926;BMP180;6022;48.768;18.608;2023-02-01T05:46:38;98188.53;;;2.59
11926;BMP180;6022;48.768;18.608;2023-02-01T05:49:05;98192.84;;;2.55
11926;BMP180;6022;48.768;18.608;2023-02-01T05:51:32;98204.59;;;2.53
11926;BMP180;6022;48.768;18.608;2023-02-01T05:54:00;98196.28;;;2.53
11926;BMP180;6022;48.768;18.608;2023-02-01T05:56:27;98199.34;;;2.59
11926;BMP180;6022;48.768;18.608;2023-02-01T05:58:55;98191.75;;;2.62
11926;BMP180;6022;48.768;18.608;2023-02-01T06:01:22;98189.13;;;2.65
11926;BMP180;6022;48.768;18.608;2023-02-01T06:03:49;98183.84;;;2.72
11926;BMP180;6022;48.768;18.608;2023-02-01T06:06:17;98183.88;;;2.71
11926;BMP180;6022;48.768;18.608;2023-02-01T06:08:46;98181.56;;;2.66
11926;BMP180;6022;48.768;18.608;2023-02-01T06:11:13;98190.75;;;2.66
11926;BMP180;6022;48.768;18.608;2023-02-01T06:13:58;98189.25;;;2.62
11926;BMP180;6022;48.768;18.608;2023-02-01T06:16:26;98182.81;;;2.55
11926;BMP180;6022;48.768;18.608;2023-02-01T06:18:54;98192.03;;;2.55
11926;BMP180;6022;48.768;18.608;2023-02-01T06:21:22;98188.09;;;2.48
11926;BMP180;6022;48.768;18.608;2023-02-01T06:23:53;98185.47;;;2.51
11926;BMP180;6022;48.768;18.608;2023-02-01T06:26:22;98179.78;;;2.47
11926;BMP180;6022;48.768;18.608;2023-02-01T06:28:49;98184.66;;;2.50
11926;BMP180;6022;48.768;18.608;2023-02-01T06:31:16;98184.66;;;2.50
11926;BMP180;6022;48.768;18.608;2023-02-01T06:33:44;98195.34;;;2.55
11926;BMP180;6022;48.768;18.608;2023-02-01T06:36:14;98186.19;;;2.54
11926;BMP180;6022;48.768;18.608;2023-02-01T06:38:42;98185.94;;;2.60
11926;BMP180;6022;48.768;18.608;2023-02-01T06:41:10;98173.38;;;2.62
11926;BMP180;6022;48.768;18.608;2023-02-01T06:43:38;98194.03;;;2.68
11926;BMP180;6022;48.768;18.608;2023-02-01T06:46:11;98197.28;;;2.70
11926;BMP180;6022;48.768;18.608;2023-02-01T06:48:39;98187.16;;;2.73
11926;BMP180;6022;48.768;18.608;2023-02-01T06:51:27;98203.59;;;2.80
11926;BMP180;6022;48.768;18.608;2023-02-01T06:53:56;98194.25;;;2.85
11926;BMP180;6022;48.768;18.608;2023-02-01T06:56:24;98195.00;;;2.87
11926;BMP180;6022;48.768;18.608;2023-02-01T06:58:51;98193.81;;;2.95
11926;BMP180;6022;48.768;18.608;2023-02-01T07:01:21;98185.31;;;2.99
11926;BMP180;6022;48.768;18.608;2023-02-01T07:03:50;98178.56;;;3.01
11926;BMP180;6022;48.768;18.608;2023-02-01T07:06:18;98175.78;;;3.08
11926;BMP180;6022;48.768;18.608;2023-02-01T07:08:46;98186.69;;;3.07
11926;BMP180;6022;48.768;18.608;2023-02-01T07:11:16;98188.94;;;3.13
11926;BMP180;6022;48.768;18.608;2023-02-01T07:13:44;98202.91;;;3.20
11926;BMP180;6022;48.768;18.608;2023-02-01T07:16:18;98205.16;;;3.26
11926;BMP180;6022;48.768;18.608;2023-02-01T07:18:46;98213.53;;;3.25
11926;BMP180;6022;48.768;18.608;2023-02-01T07:21:14;98189.94;;;3.31
11926;BMP180;6022;48.768;18.608;2023-02-01T07:23:41;98190.53;;;3.37
11926;BMP180;6022;48.768;18.608;2023-02-01T07:26:12;98196.91;;;3.44
11926;BMP180;6022;48.768;18.608;2023-02-01T07:28:41;98192.66;;;3.46
11926;BMP180;6022;48.768;18.608;2023-02-01T07:31:12;98197.81;;;3.43
11926;BMP180;6022;48.768;18.608;2023-02-01T07:33:44;98200.94;;;3.48
11926;BMP180;6022;48.768;18.608;2023-02-01T07:39:08;98184.91;;;3.52
11926;BMP180;6022;48.768;18.608;2023-02-01T07:41:36;98185.53;;;3.57
11926;BMP180;6022;48.768;18.608;2023-02-01T07:44:03;98186.13;;;3.63
11926;BMP180;6022;48.768;18.608;2023-02-01T07:46:30;98199.47;;;3.64
11926;BMP180;6022;48.768;18.608;2023-02-01T07:49:00;98217.13;;;3.61
11926;BMP180;6022;48.768;18.608;2023-02-01T07:51:27;98217.03;;;3.64
11926;BMP180;6022;48.768;18.608;2023-02-01T07:53:54;98205.34;;;3.63
11926;BMP180;6022;48.768;18.608;2023-02-01T07:56:22;98210.00;;;3.72
11926;BMP180;6022;48.768;18.608;2023-02-01T07:58:52;98200.78;;;3.72
11926;BMP180;6022;48.768;18.608;2023-02-01T08:01:23;98203.84;;;3.80
11926;BMP180;6022;48.768;18.608;2023-02-01T08:03:59;98207.59;;;3.90
11926;BMP180;6022;48.768;18.608;2023-02-01T08:06:29;98213.41;;;3.90
11926;BMP180;6022;48.768;18.608;2023-02-01T08:08:58;98207.75;;;3.85
11926;BMP180;6022;48.768;18.608;2023-02-01T08:11:26;98211.97;;;3.85
11926;BMP180;6022;48.768;18.608;2023-02-01T08:13:54;98210.75;;;3.74
11926;BMP180;6022;48.768;18.608;2023-02-01T08:16:23;98211.56;;;3.74
11926;BMP180;6022;48.768;18.608;2023-02-01T08:18:51;98208.25;;;3.74
11926;BMP180;6022;48.768;18.608;2023-02-01T08:21:22;98218.44;;;3.71
11926;BMP180;6022;48.768;18.608;2023-02-01T08:23:51;98205.25;;;3.66
11926;BMP180;6022;48.768;18.608;2023-02-01T08:26:21;98201.84;;;3.67
11926;BMP180;6022;48.768;18.608;2023-02-01T08:28:52;98205.91;;;3.71
11926;BMP180;6022;48.768;18.608;2023-02-01T08:31:23;98207.44;;;3.73
11926;BMP180;6022;48.768;18.608;2023-02-01T08:33:56;98213.28;;;3.74
11926;BMP180;6022;48.768;18.608;2023-02-01T08:36:28;98213.16;;;3.76
11926;BMP180;6022;48.768;18.608;2023-02-01T08:38:56;98219.00;;;3.77
11926;BMP180;6022;48.768;18.608;2023-02-01T08:41:29;98217.88;;;3.84
11926;BMP180;6022;48.768;18.608;2023-02-01T08:43:57;98215.13;;;3.90
11926;BMP180;6022;48.768;18.608;2023-02-01T08:46:25;98211.66;;;3.92
11926;BMP180;6022;48.768;18.608;2023-02-01T08:48:53;98212.16;;;4.00
11926;BMP180;6022;48.768;18.608;2023-02-01T08:51:22;98199.75;;;3.97
11926;BMP180;6022;48.768;18.608;2023-02-01T08:53:50;98197.09;;;4.00
11926;BMP180;6022;48.768;18.608;2023-02-01T08:56:18;98192.84;;;4.02
11926;BMP180;6022;48.768;18.608;2023-02-01T08:58:46;98184.44;;;4.03
11926;BMP180;6022;48.768;18.608;2023-02-01T09:01:16;98188.25;;;4.12
11926;BMP180;6022;48.768;18.608;2023-02-01T09:03:44;98177.09;;;4.18
11926;BMP180;6022;48.768;18.608;2023-02-01T09:06:14;98167.00;;;4.20
11926;BMP180;6022;48.768;18.608;2023-02-01T09:08:42;98166.28;;;4.16
11926;BMP180;6022;48.768;18.608;2023-02-01T09:11:21;98171.31;;;4.16
11926;BMP180;6022;48.768;18.608;2023-02-01T09:13:49;98179.06;;;4.12
11926;BMP180;6022;48.768;18.608;2023-02-01T09:16:17;98183.22;;;4.12
11926;BMP180;6022;48.768;18.608;2023-02-01T09:18:44;98183.19;;;4.13
11926;BMP180;6022;48.768;18.608;2023-02-01T09:21:32;98189.09;;;4.12
11926;BMP180;6022;48.768;18.608;2023-02-01T09:24:00;98190.66;;;4.14
11926;BMP180;6022;48.768;18.608;2023-02-01T09:26:27;98190.53;;;4.17
11926;BMP180;6022;48.768;18.608;2023-02-01T09:29:06;98177.03;;;4.20
11926;BMP180;6022;48.768;18.608;2023-02-01T09:31:41;98164.47;;;4.20
11926;BMP180;6022;48.768;18.608;2023-02-01T09:34:23;98161.59;;;4.29
11926;BMP180;6022;48.768;18.608;2023-02-01T09:36:50;98172.22;;;4.34
11926;BMP180;6022;48.768;18.608;2023-02-01T09:39:18;98174.00;;;4.32
11926;BMP180;6022;48.768;18.608;2023-02-01T09:42:15;98180.09;;;4.26
11926;BMP180;6022;48.768;18.608;2023-02-01T09:45:02;98178.53;;;4.24
11926;BMP180;6022;48.768;18.608;2023-02-01T09:47:32;98159.47;;;4.20
11926;BMP180;6022;48.768;18.608;2023-02-01T09:50:15;98162.28;;;4.13
11926;BMP180;6022;48.768;18.608;2023-02-01T09:52:54;98148.94;;;4.12
11926;BMP180;6022;48.768;18.608;2023-02-01T09:55:47;98142.63;;;4.22
11926;BMP180;6022;48.768;18.608;2023-02-01T09:59:46;98134.72;;;4.31
11926;BMP180;6022;48.768;18.608;2023-02-01T10:01:52;98131.03;;;4.38
11926;BMP180;6022;48.768;18.608;2023-02-01T10:04:19;98134.25;;;4.41
11926;BMP180;6022;48.768;18.608;2023-02-01T10:12:48;98121.28;;;4.50
11926;BMP180;6022;48.768;18.608;2023-02-01T10:18:39;98114.97;;;4.60
11926;BMP180;6022;48.768;18.608;2023-02-01T10:21:32;98124.72;;;4.66
11926;BMP180;6022;48.768;18.608;2023-02-01T10:24:40;98121.63;;;4.61
11926;BMP180;6022;48.768;18.608;2023-02-01T10:27:22;98116.78;;;4.56
11926;BMP180;6022;48.768;18.608;2023-02-01T10:32:42;98120.06;;;4.58
11926;BMP180;6022;48.768;18.608;2023-02-01T10:35:30;98115.88;;;4.59
11926;BMP180;6022;48.768;18.608;2023-02-01T10:38:01;98109.66;;;4.66
11926;BMP180;6022;48.768;18.608;2023-02-01T10:40:30;98106.06;;;4.71
11926;BMP180;6022;48.768;18.608;2023-02-01T10:43:01;98083.56;;;4.70
11926;BMP180;6022;48.768;18.608;2023-02-01T10:45:32;98095.28;;;4.69
11926;BMP180;6022;48.768;18.608;2023-02-01T10:48:03;98090.13;;;4.72
11926;BMP180;6022;48.768;18.608;2023-02-01T10:51:05;98093.59;;;4.70
11926;BMP180;6022;48.768;18.608;2023-02-01T10:54:01;98093.09;;;4.62
11926;BMP180;6022;48.768;18.608;2023-02-01T10:56:38;98104.72;;;4.64
11926;BMP180;6022;48.768;18.608;2023-02-01T10:59:17;98107.38;;;4.61
11926;BMP180;6022;48.768;18.608;2023-02-01T11:01:49;98109.94;;;4.60
11926;BMP180;6022;48.768;18.608;2023-02-01T11:04:19;98099.22;;;4.56
11926;BMP180;6022;48.768;18.608;2023-02-01T11:07:16;98102.47;;;4.58
11926;BMP180;6022;48.768;18.608;2023-02-01T11:09:51;98096.63;;;4.58
11926;BMP180;6022;48.768;18.608;2023-02-01T11:12:37;98096.69;;;4.56
11926;BMP180;6022;48.768;18.608;2023-02-01T11:15:23;98098.63;;;4.51
11926;BMP180;6022;48.768;18.608;2023-02-01T11:17:53;98095.66;;;4.44
11926;BMP180;6022;48.768;18.608;2023-02-01T11:20:38;98082.28;;;4.25
11926;BMP180;6022;48.768;18.608;2023-02-01T11:23:18;98084.91;;;4.22
11926;BMP180;6022;48.768;18.608;2023-02-01T11:25:59;98078.94;;;4.24
11926;BMP180;6022;48.768;18.608;2023-02-01T11:28:38;98078.19;;;4.22
11926;BMP180;6022;48.768;18.608;2023-02-01T11:31:12;98083.34;;;4.19
11926;BMP180;6022;48.768;18.608;2023-02-01T11:33:52;98075.81;;;4.19
11926;BMP180;6022;48.768;18.608;2023-02-01T11:36:26;98084.38;;;4.15
11926;BMP180;6022;48.768;18.608;2023-02-01T11:39:24;98086.03;;;4.15
11926;BMP180;6022;48.768;18.608;2023-02-01T11:42:16;98081.34;;;4.08
11926;BMP180;6022;48.768;18.608;2023-02-01T11:44:46;98082.84;;;3.93
11926;BMP180;6022;48.768;18.608;2023-02-01T11:47:40;98087.34;;;3.85
11926;BMP180;6022;48.768;18.608;2023-02-01T11:50:34;98078.00;;;3.89
11926;BMP180;6022;48.768;18.608;2023-02-01T11:53:25;98082.97;;;3.90
11926;BMP180;6022;48.768;18.608;2023-02-01T11:56:10;98078.97;;;3.86
11926;BMP180;6022;48.768;18.608;2023-02-01T12:05:04;98071.97;;;3.75
11926;BMP180;6022;48.768;18.608;2023-02-01T12:38:46;98051.78;;;3.18
11926;BMP180;6022;48.768;18.608;2023-02-01T12:44:04;98048.38;;;3.19
11926;BMP180;6022;48.768;18.608;2023-02-01T12:46:55;98052.66;;;3.17
11926;BMP180;6022;48.768;18.608;2023-02-01T12:52:42;98046.53;;;3.24
11926;BMP180;6022;48.768;18.608;2023-02-01T12:55:20;98044.78;;;3.26
11926;BMP180;6022;48.768;18.608;2023-02-01T12:58:02;98037.34;;;3.23
11926;BMP180;6022;48.768;18.608;2023-02-01T13:00:39;98033.84;;;3.27
11926;BMP180;6022;48.768;18.608;2023-02-01T13:03:32;98031.47;;;3.24
11926;BMP180;6022;48.768;18.608;2023-02-01T13:06:15;98028.22;;;3.22
11926;BMP180;6022;48.768;18.608;2023-02-01T13:11:46;98024.47;;;3.32
11926;BMP180;6022;48.768;18.608;2023-02-01T13:14:39;98021.59;;;3.41
11926;BMP180;6022;48.768;18.608;2023-02-01T13:17:29;98026.84;;;3.35
11926;BMP180;6022;48.768;18.608;2023-02-01T13:22:51;98033.84;;;3.27
11926;BMP180;6022;48.768;18.608;2023-02-01T13:25:47;98031.34;;;3.27
11926;BMP180;6022;48.768;18.608;2023-02-01T13:28:47;98034.25;;;3.18
11926;BMP180;6022;48.768;18.608;2023-02-01T13:38:04;98038.88;;;3.07
11926;BMP180;6022;48.768;18.608;2023-02-01T13:41:01;98037.22;;;3.06
11926;BMP180;6022;48.768;18.608;2023-02-01T13:43:33;98020.44;;;3.08
11926;BMP180;6022;48.768;18.608;2023-02-01T13:46:10;98027.34;;;3.03
11926;BMP180;6022;48.768;18.608;2023-02-01T13:49:21;98020.69;;;3.02
11926;BMP180;6022;48.768;18.608;2023-02-01T13:51:54;98022.53;;;2.98
11926;BMP180;6022;48.768;18.608;2023-02-01T13:54:39;98023.63;;;2.92
11926;BMP180;6022;48.768;18.608;2023-02-01T13:58:00;98038.78;;;2.89
11926;BMP180;6022;48.768;18.608;2023-02-01T14:00:33;98042.28;;;2.85
11926;BMP180;6022;48.768;18.608;2023-02-01T14:18:58;98047.06;;;2.70
11926;BMP180;6022;48.768;18.608;2023-02-01T14:21:31;98032.03;;;2.70
11926;BMP180;6022;48.768;18.608;2023-02-01T14:24:24;98040.16;;;2.75
11926;BMP180;6022;48.768;18.608;2023-02-01T14:26:58;98027.53;;;2.78
11926;BMP180;6022;48.768;18.608;2023-02-01T14:29:34;98018.22;;;2.81
11926;BMP180;6022;48.768;18.608;2023-02-01T14:32:26;98024.78;;;2.84
11926;BMP180;6022;48.768;18.608;2023-02-01T14:35:02;98016.47;;;2.83
11926;BMP180;6022;48.768;18.608;2023-02-01T14:37:34;98000.50;;;2.86
11926;BMP180;6022;48.768;18.608;2023-02-01T14:53:08;98021.50;;;2.83
11926;BMP180;6022;48.768;18.608;2023-02-01T14:56:09;98012.31;;;2.82
11926;BMP180;6022;48.768;18.608;2023-02-01T15:01:31;98007.50;;;2.78
11926;BMP180;6022;48.768;18.608;2023-02-01T15:06:52;98018.53;;;2.74
11926;BMP180;6022;48.768;18.608;2023-02-01T15:09:33;98008.63;;;2.71
11926;BMP180;6022;48.768;18.608;2023-02-01T15:14:45;98010.41;;;2.67
11926;BMP180;6022;48.768;18.608;2023-02-01T15:20:00;98008.06;;;2.64
11926;BMP180;6022;48.768;18.608;2023-02-01T15:22:31;98008.06;;;2.64
11926;BMP180;6022;48.768;18.608;2023-02-01T15:25:02;98000.50;;;2.66
11926;BMP180;6022;48.768;18.608;2023-02-01T15:27:32;98000.41;;;2.67
11926;BMP180;6022;48.768;18.608;2023-02-01T15:30:16;97998.00;;;2.66
11926;BMP180;6022;48.768;18.608;2023-02-01T15:32:47;97997.16;;;2.65
11926;BMP180;6022;48.768;18.608;2023-02-01T15:35:34;97995.34;;;2.69
11926;BMP180;6022;48.768;18.608;2023-02-01T15:41:19;98004.31;;;2.74
11926;BMP180;6022;48.768;18.608;2023-02-01T15:46:38;97999.94;;;2.79
11926;BMP180;6022;48.768;18.608;2023-02-01T15:49:29;98005.72;;;2.81
11926;BMP180;6022;48.768;18.608;2023-02-01T15:52:00;98015.66;;;2.83
11926;BMP180;6022;48.768;18.608;2023-02-01T15:54:46;98010.66;;;2.83
11926;BMP180;6022;48.768;18.608;2023-02-01T15:57:26;98022.19;;;2.87
11926;BMP180;6022;48.768;18.608;2023-02-01T16:00:22;98029.56;;;2.90
11926;BMP180;6022;48.768;18.608;2023-02-01T16:03:01;98032.19;;;2.87
11926;BMP180;6022;48.768;18.608;2023-02-01T16:10:41;98044.22;;;2.99
11926;BMP180;6022;48.768;18.608;2023-02-01T16:13:09;98042.44;;;3.02
11926;BMP180;6022;48.768;18.608;2023-02-01T16:15:37;98054.75;;;3.06
11926;BMP180;6022;48.768;18.608;2023-02-01T16:18:06;98051.25;;;3.10
11926;BMP180;6022;48.768;18.608;2023-02-01T16:20:37;98047.00;;;3.12
11926;BMP180;6022;48.768;18.608;2023-02-01T16:23:07;98045.88;;;3.19
11926;BMP180;6022;48.768;18.608;2023-02-01T16:25:36;98047.06;;;3.31
11926;BMP180;6022;48.768;18.608;2023-02-01T16:28:04;98047.03;;;3.32
11926;BMP180;6022;48.768;18.608;2023-02-01T16:30:36;98048.56;;;3.35
11926;BMP180;6022;48.768;18.608;2023-02-01T16:33:16;98060.78;;;3.42
11926;BMP180;6022;48.768;18.608;2023-02-01T16:35:46;98048.47;;;3.38
11926;BMP180;6022;48.768;18.608;2023-02-01T16:38:18;98053.53;;;3.36
11926;BMP180;6022;48.768;18.608;2023-02-01T16:40:50;98043.56;;;3.35
11926;BMP180;6022;48.768;18.608;2023-02-01T16:43:23;98038.59;;;3.33
11926;BMP180;6022;48.768;18.608;2023-02-01T16:45:54;98048.63;;;3.33
11926;BMP180;6022;48.768;18.608;2023-02-01T16:48:29;98040.31;;;3.33
11926;BMP180;6022;48.768;18.608;2023-02-01T16:51:09;98050.47;;;3.30
11926;BMP180;6022;48.768;18.608;2023-02-01T16:53:37;98059.00;;;3.26
11926;BMP180;6022;48.768;18.608;2023-02-01T16:56:32;98062.47;;;3.22
11926;BMP180;6022;48.768;18.608;2023-02-01T16:59:00;98071.09;;;3.16
11926;BMP180;6022;48.768;18.608;2023-02-01T17:01:28;98073.81;;;3.10
11926;BMP180;6022;48.768;18.608;2023-02-01T17:03:55;98068.94;;;3.07
11926;BMP180;6022;48.768;18.608;2023-02-01T17:06:25;98065.78;;;3.02
11926;BMP180;6022;48.768;18.608;2023-02-01T17:08:57;98072.53;;;3.00
11926;BMP180;6022;48.768;18.608;2023-02-01T17:11:26;98076.59;;;3.03
11926;BMP180;6022;48.768;18.608;2023-02-01T17:13:56;98070.09;;;2.99
11926;BMP180;6022;48.768;18.608;2023-02-01T17:16:29;98071.69;;;3.01
11926;BMP180;6022;48.768;18.608;2023-02-01T17:19:02;98072.53;;;3.00
11926;BMP180;6022;48.768;18.608;2023-02-01T17:21:43;98077.66;;;2.98
11926;BMP180;6022;48.768;18.608;2023-02-01T17:24:15;98076.16;;;2.94
11926;BMP180;6022;48.768;18.608;2023-02-01T17:26:43;98072.03;;;2.93
11926;BMP180;6022;48.768;18.608;2023-02-01T17:29:12;98075.34;;;2.93
11926;BMP180;6022;48.768;18.608;2023-02-01T17:31:44;98075.34;;;2.93
11926;BMP180;6022;48.768;18.608;2023-02-01T17:34:14;98076.03;;;2.97
11926;BMP180;6022;48.768;18.608;2023-02-01T17:36:42;98075.81;;;3.02